Inicio METAR Ruta Wind Satelite

Informe Meteorológico

Fecha: 2021/09/21 15:23:07 Local
2021.09.21 20:23 UTC


Operación:
SPECI SKBS 212000Z 00000KT 9999 SCT015 24/24 Q1009 RMK REDZ A2979 =